createdAt,value
2023-03-18T00:00:15.118Z,3.40
2023-03-18T00:01:15.088Z,3.20
2023-03-18T00:02:15.111Z,3.40
2023-03-18T00:03:15.070Z,3.20
2023-03-18T00:04:15.068Z,3.50
2023-03-18T00:05:15.063Z,3.30
2023-03-18T00:06:15.038Z,3.40
2023-03-18T00:07:15.065Z,3.40
2023-03-18T00:08:15.029Z,3.30
2023-03-18T00:09:15.005Z,3.40
2023-03-18T00:10:15.010Z,3.20
2023-03-18T00:11:14.993Z,3.20
2023-03-18T00:12:14.980Z,3.50
2023-03-18T00:13:14.977Z,3.40
2023-03-18T00:14:14.960Z,3.40
2023-03-18T00:15:14.959Z,3.10
2023-03-18T00:16:14.979Z,3.30
2023-03-18T00:17:14.932Z,3.20
2023-03-18T00:18:14.923Z,3.50
2023-03-18T00:19:14.912Z,3.20
2023-03-18T00:20:14.922Z,3.50
2023-03-18T00:21:14.910Z,3.60
2023-03-18T00:22:14.886Z,3.20
2023-03-18T00:23:14.865Z,3.30
2023-03-18T00:24:14.857Z,3.20
2023-03-18T00:25:14.868Z,3.30
2023-03-18T00:26:14.840Z,3.50
2023-03-18T00:27:14.876Z,3.10
2023-03-18T00:28:16.264Z,3.10
2023-03-18T00:29:14.838Z,3.40
2023-03-18T00:30:14.816Z,3.20
2023-03-18T00:31:14.824Z,3.40
2023-03-18T00:32:14.779Z,3.30
2023-03-18T00:33:14.846Z,3.60
2023-03-18T00:34:14.771Z,3.10
2023-03-18T00:35:14.769Z,3.20
2023-03-18T00:36:14.756Z,3.50
2023-03-18T00:37:14.734Z,3.30
2023-03-18T00:38:14.721Z,3.60
2023-03-18T00:39:14.708Z,3.40
2023-03-18T00:40:14.710Z,2.90
2023-03-18T00:41:14.692Z,3.40
2023-03-18T00:42:14.678Z,3.30
2023-03-18T00:43:14.673Z,3.10
2023-03-18T00:44:14.656Z,3.50
2023-03-18T00:45:14.664Z,3.60
2023-03-18T00:46:14.687Z,3.50
2023-03-18T00:47:14.628Z,3.60
2023-03-18T00:48:14.627Z,3.80
2023-03-18T00:49:14.701Z,3.40
2023-03-18T00:50:14.608Z,3.70
2023-03-18T00:51:14.599Z,3.80
2023-03-18T00:52:14.589Z,3.70
2023-03-18T00:53:14.569Z,3.80
2023-03-18T00:54:14.554Z,3.40
2023-03-18T00:55:14.551Z,3.70
2023-03-18T00:56:14.539Z,4.30
2023-03-18T00:57:14.519Z,4.00
2023-03-18T00:58:14.525Z,4.00
2023-03-18T00:59:14.505Z,3.90
2023-03-18T01:00:14.508Z,4.10
2023-03-18T01:01:14.536Z,4.00
2023-03-18T01:02:14.511Z,3.60
2023-03-18T01:03:14.461Z,3.60
2023-03-18T01:04:14.453Z,3.60
2023-03-18T01:05:14.455Z,4.00
2023-03-18T01:06:14.441Z,3.60
2023-03-18T01:07:14.415Z,4.00
2023-03-18T01:08:14.415Z,3.70
2023-03-18T01:09:14.408Z,4.00
2023-03-18T01:10:14.406Z,3.60
2023-03-18T01:11:14.383Z,3.70
2023-03-18T01:12:14.373Z,3.90
2023-03-18T01:13:14.364Z,4.10
2023-03-18T01:14:14.351Z,3.80
2023-03-18T01:15:14.354Z,3.80
2023-03-18T01:16:14.403Z,3.90
2023-03-18T01:17:14.331Z,3.70
2023-03-18T01:18:14.310Z,4.10
2023-03-18T01:19:14.332Z,4.00
2023-03-18T01:20:14.313Z,4.20
2023-03-18T01:21:14.284Z,4.10
2023-03-18T01:22:14.273Z,4.20
2023-03-18T01:23:14.257Z,4.20
2023-03-18T01:24:14.253Z,4.00
2023-03-18T01:25:14.249Z,3.30
2023-03-18T01:26:14.232Z,3.90
2023-03-18T01:27:14.218Z,4.00
2023-03-18T01:28:14.208Z,3.70
2023-03-18T01:29:14.199Z,3.50
2023-03-18T01:30:14.210Z,4.20
2023-03-18T01:31:14.230Z,4.30
2023-03-18T01:32:14.179Z,4.00
2023-03-18T01:33:14.151Z,4.30
2023-03-18T01:34:14.147Z,3.80
2023-03-18T01:35:14.151Z,3.80
2023-03-18T01:36:14.132Z,4.00
2023-03-18T01:37:14.116Z,3.90
2023-03-18T01:38:14.097Z,4.00
2023-03-18T01:39:15.153Z,4.00
2023-03-18T01:40:14.209Z,3.70
2023-03-18T01:41:14.157Z,3.50
2023-03-18T01:42:14.154Z,3.80
2023-03-18T01:43:14.132Z,4.30
2023-03-18T01:44:14.128Z,4.10
2023-03-18T01:45:14.092Z,4.30
2023-03-18T01:46:14.120Z,4.70
2023-03-18T01:47:14.104Z,4.00
2023-03-18T01:48:14.064Z,4.30
2023-03-18T01:49:13.993Z,4.30
2023-03-18T01:50:13.998Z,4.00
2023-03-18T01:51:13.974Z,4.10
2023-03-18T01:52:13.962Z,4.70
2023-03-18T01:53:13.959Z,4.40
2023-03-18T01:54:13.943Z,4.60
2023-03-18T01:55:13.940Z,4.60
2023-03-18T01:56:13.909Z,4.90
2023-03-18T01:57:14.908Z,3.90
2023-03-18T01:58:13.894Z,4.50
2023-03-18T01:59:13.930Z,4.80
2023-03-18T02:00:13.890Z,5.00
2023-03-18T02:01:13.894Z,4.50
2023-03-18T02:02:13.860Z,4.50
2023-03-18T02:03:13.850Z,4.70
2023-03-18T02:05:00.264Z,4.80
2023-03-18T02:06:00.258Z,4.90
2023-03-18T02:07:00.260Z,5.00
2023-03-18T02:08:00.246Z,5.40
2023-03-18T02:09:00.244Z,5.20
2023-03-18T02:10:00.231Z,5.20
2023-03-18T02:11:00.211Z,5.20
2023-03-18T02:12:00.216Z,5.10
2023-03-18T02:13:00.191Z,5.20
2023-03-18T02:14:00.190Z,5.40
2023-03-18T02:15:00.224Z,5.60
2023-03-18T02:16:00.161Z,5.40
2023-03-18T02:17:00.209Z,5.30
2023-03-18T02:18:00.145Z,5.50
2023-03-18T02:19:00.119Z,6.00
2023-03-18T02:20:00.148Z,5.50
2023-03-18T02:21:00.174Z,5.70
2023-03-18T02:22:00.098Z,5.60
2023-03-18T02:23:00.088Z,5.40
2023-03-18T02:24:00.076Z,5.50
2023-03-18T02:25:00.083Z,5.40
2023-03-18T02:26:00.106Z,5.60
2023-03-18T02:27:00.034Z,5.50
2023-03-18T02:28:00.034Z,5.60
2023-03-18T02:29:00.020Z,6.10
2023-03-18T02:30:00.010Z,6.10
2023-03-18T02:31:00.024Z,6.60
2023-03-18T02:31:59.991Z,6.30
2023-03-18T02:33:00.025Z,6.00
2023-03-18T02:33:59.971Z,6.60
2023-03-18T02:34:59.953Z,6.10
2023-03-18T02:36:00.010Z,6.50
2023-03-18T02:36:59.931Z,6.30
2023-03-18T02:37:59.926Z,7.10
2023-03-18T02:38:59.914Z,7.30
2023-03-18T02:39:59.906Z,6.90
2023-03-18T02:40:59.920Z,6.90
2023-03-18T02:41:59.891Z,7.70
2023-03-18T02:42:59.874Z,7.20
2023-03-18T02:43:59.873Z,7.00
2023-03-18T02:44:59.866Z,6.90
2023-03-18T02:45:59.859Z,7.40
2023-03-18T02:46:59.839Z,7.30
2023-03-18T02:47:59.822Z,7.60
2023-03-18T02:48:59.825Z,7.40
2023-03-18T02:49:59.808Z,6.90
2023-03-18T02:50:59.816Z,6.70
2023-03-18T02:51:59.787Z,6.50
2023-03-18T02:52:59.790Z,7.50
2023-03-18T02:53:59.782Z,5.90
2023-03-18T02:54:59.756Z,6.30
2023-03-18T02:56:00.908Z,6.20
2023-03-18T02:57:00.854Z,6.30
2023-03-18T02:58:00.844Z,6.00
2023-03-18T02:59:00.839Z,7.60
2023-03-18T03:00:00.830Z,6.50
2023-03-18T03:01:00.858Z,6.10
2023-03-18T03:02:00.815Z,6.30
2023-03-18T03:03:00.930Z,6.40
2023-03-18T03:04:00.791Z,6.60
2023-03-18T03:05:00.783Z,6.60
2023-03-18T03:06:00.780Z,6.30
2023-03-18T03:07:00.758Z,7.40
2023-03-18T03:08:00.748Z,6.70
2023-03-18T03:09:00.743Z,7.00
2023-03-18T03:10:00.731Z,7.30
2023-03-18T03:11:00.729Z,7.30
2023-03-18T03:12:00.707Z,6.90
2023-03-18T03:13:00.704Z,6.60
2023-03-18T03:14:00.694Z,7.20
2023-03-18T03:15:00.680Z,6.70
2023-03-18T03:16:00.731Z,6.60
2023-03-18T03:17:00.660Z,6.50
2023-03-18T03:18:00.663Z,6.90
2023-03-18T03:19:00.641Z,7.00
2023-03-18T03:20:00.640Z,7.00
2023-03-18T03:21:00.627Z,6.90
2023-03-18T03:22:00.611Z,6.30
2023-03-18T03:23:00.596Z,7.60
2023-03-18T03:24:00.585Z,6.80
2023-03-18T03:25:00.577Z,6.60
2023-03-18T03:26:00.581Z,6.90
2023-03-18T03:27:00.563Z,6.70
2023-03-18T03:28:00.557Z,6.80
2023-03-18T03:29:00.549Z,7.40
2023-03-18T03:30:00.524Z,7.20
2023-03-18T03:31:00.585Z,6.80
2023-03-18T03:32:00.517Z,7.10
2023-03-18T03:33:00.533Z,7.30
2023-03-18T03:34:00.489Z,7.60
2023-03-18T03:35:00.477Z,7.20
2023-03-18T03:36:00.510Z,6.70
2023-03-18T03:37:00.458Z,7.10
2023-03-18T03:38:00.452Z,6.80
2023-03-18T03:39:00.434Z,7.00
2023-03-18T03:40:00.429Z,6.40
2023-03-18T03:41:00.433Z,6.80
2023-03-18T03:42:00.402Z,7.10
2023-03-18T03:43:00.396Z,6.80
2023-03-18T03:44:00.386Z,7.50
2023-03-18T03:45:00.390Z,7.60
2023-03-18T03:46:00.375Z,7.70
2023-03-18T03:47:00.353Z,7.70
2023-03-18T03:48:00.366Z,7.90
2023-03-18T03:49:00.341Z,7.30
2023-03-18T03:50:00.326Z,7.40
2023-03-18T03:51:00.323Z,7.10
2023-03-18T03:52:00.301Z,6.70
2023-03-18T03:53:00.293Z,7.30
2023-03-18T03:54:00.286Z,7.30
2023-03-18T03:55:00.277Z,7.30
2023-03-18T03:56:00.291Z,7.30
2023-03-18T03:57:00.256Z,6.30
2023-03-18T03:58:00.243Z,7.20
2023-03-18T03:59:00.240Z,7.50
2023-03-18T04:00:00.237Z,7.90
2023-03-18T04:01:00.221Z,7.30
2023-03-18T04:02:00.201Z,7.40
2023-03-18T04:03:00.272Z,7.10
2023-03-18T04:04:00.256Z,6.90
2023-03-18T04:05:00.206Z,7.90
2023-03-18T04:06:00.177Z,7.30
2023-03-18T04:07:00.156Z,8.90
2023-03-18T04:08:00.141Z,7.90
2023-03-18T04:09:00.133Z,8.60
2023-03-18T04:10:00.120Z,7.90
2023-03-18T04:11:00.122Z,7.90
2023-03-18T04:12:00.133Z,8.20
2023-03-18T04:13:00.127Z,7.90
2023-03-18T04:14:00.095Z,7.80
2023-03-18T04:15:00.117Z,7.60
2023-03-18T04:16:00.131Z,7.70
2023-03-18T04:17:00.062Z,8.20
2023-03-18T04:18:00.045Z,8.50
2023-03-18T04:19:00.034Z,8.40
2023-03-18T04:20:00.028Z,7.60
2023-03-18T04:21:00.025Z,7.90
2023-03-18T04:22:00.000Z,8.50
2023-03-18T04:22:59.991Z,8.40
2023-03-18T04:23:59.985Z,9.10
2023-03-18T04:24:59.992Z,9.40
2023-03-18T04:25:59.999Z,8.50
2023-03-18T04:26:59.953Z,9.10
2023-03-18T04:27:59.949Z,9.20
2023-03-18T04:28:59.928Z,8.40
2023-03-18T04:29:59.936Z,9.50
2023-03-18T04:31:00.029Z,9.30
2023-03-18T04:31:59.906Z,8.20
2023-03-18T04:33:00.911Z,9.20
2023-03-18T04:33:59.911Z,9.30
2023-03-18T04:34:59.881Z,8.90
2023-03-18T04:35:59.954Z,9.00
2023-03-18T04:36:59.874Z,8.90
2023-03-18T04:37:59.852Z,9.10
2023-03-18T04:38:59.858Z,8.30
2023-03-18T04:39:59.831Z,9.20
2023-03-18T04:40:59.834Z,9.40
2023-03-18T04:41:59.812Z,8.30
2023-03-18T04:42:59.798Z,9.20
2023-03-18T04:43:59.790Z,9.60
2023-03-18T04:44:59.782Z,9.50
2023-03-18T04:45:59.797Z,8.90
2023-03-18T04:46:59.816Z,9.10
2023-03-18T04:47:59.745Z,9.60
2023-03-18T04:48:59.741Z,10.00
2023-03-18T04:49:59.727Z,9.90
2023-03-18T04:50:59.742Z,9.30
2023-03-18T04:51:59.714Z,9.30
2023-03-18T04:52:59.702Z,9.20
2023-03-18T04:53:59.679Z,10.10
2023-03-18T04:55:00.681Z,9.70
2023-03-18T04:55:59.685Z,9.90
2023-03-18T04:56:59.664Z,10.20
2023-03-18T04:57:59.657Z,9.80
2023-03-18T04:58:59.648Z,9.90
2023-03-18T04:59:59.637Z,9.90
2023-03-18T05:00:59.638Z,10.10
2023-03-18T05:02:31.530Z,10.20
2023-03-18T05:02:59.628Z,11.00
2023-03-18T05:04:00.630Z,10.40
2023-03-18T05:04:59.587Z,10.30
2023-03-18T05:05:59.590Z,9.70
2023-03-18T05:06:59.571Z,10.30
2023-03-18T05:07:59.562Z,10.60
2023-03-18T05:08:59.558Z,11.00
2023-03-18T05:09:59.543Z,10.80
2023-03-18T05:10:59.542Z,9.90
2023-03-18T05:11:59.529Z,10.60
2023-03-18T05:12:59.523Z,10.80
2023-03-18T05:13:59.515Z,10.20
2023-03-18T05:14:59.525Z,10.20
2023-03-18T05:15:59.526Z,10.60
2023-03-18T05:16:59.480Z,9.80
2023-03-18T05:17:59.476Z,10.20
2023-03-18T05:18:59.467Z,10.20
2023-03-18T05:19:59.453Z,10.00
2023-03-18T05:20:59.463Z,10.40
2023-03-18T05:21:59.436Z,10.20
2023-03-18T05:22:59.435Z,10.20
2023-03-18T05:23:59.417Z,11.00
2023-03-18T05:24:59.411Z,10.40
2023-03-18T05:25:59.409Z,11.10
2023-03-18T05:26:59.502Z,10.70
2023-03-18T05:27:59.382Z,10.40
2023-03-18T05:28:59.374Z,11.60
2023-03-18T05:29:59.372Z,11.50
2023-03-18T05:30:59.351Z,11.30
2023-03-18T05:31:59.389Z,10.30
2023-03-18T05:32:59.402Z,10.40
2023-03-18T05:33:59.328Z,10.40
2023-03-18T05:34:59.313Z,11.30
2023-03-18T05:35:59.385Z,11.10
2023-03-18T05:36:59.309Z,11.30
2023-03-18T05:37:59.285Z,10.80
2023-03-18T05:38:59.276Z,10.80
2023-03-18T05:39:59.262Z,11.20
2023-03-18T05:40:59.256Z,11.60
2023-03-18T05:41:59.257Z,11.30
2023-03-18T05:42:59.237Z,11.20
2023-03-18T05:43:59.221Z,11.60
2023-03-18T05:44:59.216Z,11.80
2023-03-18T05:45:59.292Z,11.40
2023-03-18T05:46:59.203Z,11.40
2023-03-18T05:47:59.182Z,11.80
2023-03-18T05:48:59.183Z,11.60
2023-03-18T05:49:59.163Z,11.10
2023-03-18T05:50:59.149Z,11.30
2023-03-18T05:51:59.157Z,11.70
2023-03-18T05:52:59.152Z,11.30
2023-03-18T05:53:59.125Z,12.40
2023-03-18T05:54:59.116Z,12.00
2023-03-18T05:55:59.113Z,11.50
2023-03-18T05:56:59.110Z,11.00
2023-03-18T05:57:59.137Z,11.90
2023-03-18T05:58:59.086Z,11.30
2023-03-18T05:59:59.061Z,11.60
2023-03-18T06:01:00.078Z,11.50
2023-03-18T06:01:59.114Z,11.90
2023-03-18T06:02:59.062Z,11.90
2023-03-18T06:03:59.045Z,11.40
2023-03-18T06:04:59.030Z,11.60
2023-03-18T06:05:59.010Z,12.00
2023-03-18T06:06:59.013Z,10.90
2023-03-18T06:07:58.992Z,11.50
2023-03-18T06:08:59.007Z,10.90
2023-03-18T06:09:58.978Z,10.60
2023-03-18T06:10:58.966Z,11.70
2023-03-18T06:11:58.971Z,11.90
2023-03-18T06:12:58.948Z,11.70
2023-03-18T06:13:58.954Z,12.50
2023-03-18T06:14:58.931Z,11.30
2023-03-18T06:15:58.921Z,12.20
2023-03-18T06:16:58.960Z,11.30
2023-03-18T06:17:58.902Z,11.00
2023-03-18T06:18:58.930Z,14.30
2023-03-18T06:19:58.881Z,11.00
2023-03-18T06:20:58.860Z,11.50
2023-03-18T06:21:58.912Z,11.30
2023-03-18T06:22:58.845Z,11.00
2023-03-18T06:23:58.833Z,11.00
2023-03-18T06:24:58.826Z,10.80
2023-03-18T06:25:58.813Z,10.60
2023-03-18T06:26:58.842Z,10.30
2023-03-18T06:27:58.798Z,10.70
2023-03-18T06:28:58.789Z,10.10
2023-03-18T06:29:58.775Z,10.70
2023-03-18T06:30:58.796Z,10.50
2023-03-18T06:31:58.780Z,11.50
2023-03-18T06:32:58.810Z,10.60
2023-03-18T06:34:01.254Z,11.10
2023-03-18T06:34:59.733Z,11.30
2023-03-18T06:35:58.726Z,10.40
2023-03-18T06:36:58.720Z,10.40
2023-03-18T06:37:58.702Z,11.20
2023-03-18T06:38:58.686Z,10.30
2023-03-18T06:39:58.687Z,10.30
2023-03-18T06:40:58.674Z,11.30
2023-03-18T06:41:58.668Z,10.70
2023-03-18T06:42:58.652Z,10.70
2023-03-18T06:43:58.641Z,11.10
2023-03-18T06:44:58.634Z,10.80
2023-03-18T06:45:58.668Z,10.80
2023-03-18T06:46:58.622Z,11.30
2023-03-18T06:47:58.598Z,10.80
2023-03-18T06:48:58.591Z,10.30
2023-03-18T06:49:58.587Z,10.80
2023-03-18T06:50:58.572Z,10.90
2023-03-18T06:51:58.576Z,10.50
2023-03-18T06:52:58.547Z,10.20
2023-03-18T06:53:58.540Z,10.50
2023-03-18T06:54:58.537Z,10.50
2023-03-18T06:55:58.522Z,10.40
2023-03-18T06:56:58.525Z,10.50
2023-03-18T06:57:58.505Z,9.60
2023-03-18T06:58:58.496Z,8.90
2023-03-18T06:59:58.497Z,9.30
2023-03-18T07:00:59.515Z,10.00
2023-03-18T07:01:58.507Z,8.90
2023-03-18T07:02:58.451Z,9.50
2023-03-18T07:03:58.455Z,9.70
2023-03-18T07:04:58.429Z,9.50
2023-03-18T07:05:58.416Z,9.10
2023-03-18T07:06:59.424Z,8.90
2023-03-18T07:07:58.399Z,9.10
2023-03-18T07:08:58.392Z,9.30
2023-03-18T07:09:58.379Z,9.00
2023-03-18T07:10:58.383Z,8.80
2023-03-18T07:11:58.372Z,8.80
2023-03-18T07:12:58.351Z,9.00
2023-03-18T07:13:58.350Z,9.10
2023-03-18T07:14:58.330Z,9.50
2023-03-18T07:15:58.338Z,10.60
2023-03-18T07:16:58.323Z,10.20
2023-03-18T07:17:58.305Z,9.80
2023-03-18T07:18:58.300Z,10.50
2023-03-18T07:19:58.280Z,9.90
2023-03-18T07:20:58.296Z,9.90
2023-03-18T07:21:58.276Z,10.00
2023-03-18T07:22:58.251Z,9.60
2023-03-18T07:23:58.259Z,9.30
2023-03-18T07:24:58.237Z,9.50
2023-03-18T07:25:58.221Z,8.70
2023-03-18T07:26:58.229Z,7.70
2023-03-18T07:27:58.212Z,7.60
2023-03-18T07:28:58.207Z,7.30
2023-03-18T07:29:58.188Z,7.10
2023-03-18T07:30:58.223Z,6.60
2023-03-18T07:31:58.175Z,7.00
2023-03-18T07:32:58.254Z,7.20
2023-03-18T07:33:58.149Z,7.20
2023-03-18T07:34:58.146Z,7.30
2023-03-18T07:35:58.140Z,7.10
2023-03-18T07:36:58.128Z,6.70
2023-03-18T07:37:58.101Z,6.90
2023-03-18T07:38:58.102Z,6.60
2023-03-18T07:39:58.084Z,8.00
2023-03-18T07:40:58.085Z,7.40
2023-03-18T07:41:58.075Z,6.50
2023-03-18T07:42:58.062Z,6.50
2023-03-18T07:43:58.047Z,7.20
2023-03-18T07:44:58.038Z,7.00
2023-03-18T07:45:58.031Z,6.80
2023-03-18T07:46:58.033Z,7.10
2023-03-18T07:47:58.272Z,6.40
2023-03-18T07:48:58.001Z,6.40
2023-03-18T07:49:57.990Z,6.60
2023-03-18T07:50:57.979Z,6.50
2023-03-18T07:51:57.982Z,6.30
2023-03-18T07:52:57.955Z,6.50
2023-03-18T07:53:57.953Z,6.40
2023-03-18T07:54:57.939Z,7.00
2023-03-18T07:55:57.930Z,6.10
2023-03-18T07:56:57.947Z,6.10
2023-03-18T07:57:57.952Z,6.20
2023-03-18T07:58:57.903Z,6.90
2023-03-18T07:59:57.893Z,6.40
2023-03-18T08:00:57.910Z,6.70
2023-03-18T08:01:57.971Z,6.80
2023-03-18T08:02:58.865Z,6.50
2023-03-18T08:03:57.945Z,6.60
2023-03-18T08:04:57.893Z,6.10
2023-03-18T08:05:57.831Z,6.90
2023-03-18T08:06:57.850Z,6.50
2023-03-18T08:07:57.813Z,6.50
2023-03-18T08:08:57.806Z,6.60
2023-03-18T08:09:57.796Z,6.90
2023-03-18T08:10:57.784Z,7.20
2023-03-18T08:11:57.783Z,6.70
2023-03-18T08:12:57.789Z,6.70
2023-03-18T08:13:57.764Z,7.20
2023-03-18T08:14:57.745Z,6.50
2023-03-18T08:15:57.766Z,6.60
2023-03-18T08:16:57.749Z,7.20
2023-03-18T08:17:57.720Z,6.80
2023-03-18T08:18:57.711Z,6.70
2023-03-18T08:19:57.695Z,6.50
2023-03-18T08:20:57.698Z,6.70
2023-03-18T08:21:57.690Z,6.60
2023-03-18T08:22:57.709Z,6.50
2023-03-18T08:23:57.651Z,6.90
2023-03-18T08:24:57.647Z,6.50
2023-03-18T08:25:57.637Z,6.80
2023-03-18T08:26:57.691Z,6.80
2023-03-18T08:27:57.659Z,6.90
2023-03-18T08:28:57.600Z,6.90
2023-03-18T08:29:57.600Z,7.00
2023-03-18T08:30:57.585Z,6.90
2023-03-18T08:31:57.585Z,7.00
2023-03-18T08:32:57.665Z,7.10
2023-03-18T08:33:57.552Z,6.60
2023-03-18T08:34:57.543Z,7.10
2023-03-18T08:35:57.584Z,6.50
2023-03-18T08:36:57.521Z,6.70
2023-03-18T08:37:57.528Z,6.50
2023-03-18T08:38:57.510Z,6.80
2023-03-18T08:39:57.494Z,6.80
2023-03-18T08:40:57.487Z,6.30
2023-03-18T08:41:57.481Z,6.50
2023-03-18T08:42:57.484Z,6.20
2023-03-18T08:43:57.525Z,6.60
2023-03-18T08:44:57.449Z,6.50
2023-03-18T08:45:57.452Z,6.50
2023-03-18T08:46:57.437Z,6.30
2023-03-18T08:47:57.429Z,6.20
2023-03-18T08:48:57.417Z,5.70
2023-03-18T08:49:57.402Z,6.50
2023-03-18T08:50:57.419Z,5.80
2023-03-18T08:51:57.386Z,5.90
2023-03-18T08:52:57.387Z,6.00
2023-03-18T08:53:57.369Z,6.30
2023-03-18T08:54:57.359Z,7.50
2023-03-18T08:55:57.343Z,6.90
2023-03-18T08:56:57.339Z,7.30
2023-03-18T08:57:57.333Z,6.80
2023-03-18T08:58:57.316Z,6.90
2023-03-18T08:59:57.304Z,5.50
2023-03-18T09:00:57.322Z,6.00
2023-03-18T09:01:57.287Z,6.30
2023-03-18T09:02:57.284Z,6.10
2023-03-18T09:03:57.266Z,5.80
2023-03-18T09:04:57.250Z,5.50
2023-03-18T09:05:57.240Z,5.60
2023-03-18T09:06:57.234Z,5.50
2023-03-18T09:07:57.223Z,5.60
2023-03-18T09:08:57.204Z,5.30
2023-03-18T09:09:57.200Z,5.60
2023-03-18T09:10:57.196Z,5.80
2023-03-18T09:11:57.177Z,5.40
2023-03-18T09:12:57.179Z,5.10
2023-03-18T09:13:57.155Z,5.00
2023-03-18T09:14:57.140Z,5.10
2023-03-18T09:15:57.132Z,5.20
2023-03-18T09:16:57.188Z,5.00
2023-03-18T09:18:10.766Z,5.10
2023-03-18T09:18:59.124Z,4.60
2023-03-18T09:19:57.081Z,4.90
2023-03-18T09:20:58.082Z,5.40
2023-03-18T09:21:57.069Z,4.80
2023-03-18T09:22:57.070Z,5.10
2023-03-18T09:23:57.048Z,5.10
2023-03-18T09:24:57.034Z,5.10
2023-03-18T09:25:57.037Z,5.20
2023-03-18T09:26:57.018Z,5.20
2023-03-18T09:27:57.019Z,5.10
2023-03-18T09:28:56.992Z,5.00
2023-03-18T09:29:56.992Z,4.70
2023-03-18T09:30:56.993Z,4.40
2023-03-18T09:31:56.964Z,4.50
2023-03-18T09:32:57.004Z,4.90
2023-03-18T09:33:56.940Z,4.60
2023-03-18T09:34:56.928Z,4.90
2023-03-18T09:35:56.946Z,4.60
2023-03-18T09:36:56.911Z,4.70
2023-03-18T09:37:56.910Z,4.10
2023-03-18T09:38:56.885Z,4.60
2023-03-18T09:39:56.882Z,4.70
2023-03-18T09:40:56.885Z,4.60
2023-03-18T09:41:56.868Z,4.00
2023-03-18T09:42:56.855Z,4.60
2023-03-18T09:43:56.836Z,4.20
2023-03-18T09:44:56.828Z,4.40
2023-03-18T09:45:57.545Z,4.20
2023-03-18T09:46:57.890Z,4.30
2023-03-18T09:47:56.800Z,4.10
2023-03-18T09:48:56.787Z,4.40
2023-03-18T09:49:56.763Z,4.10
2023-03-18T09:50:56.758Z,4.40
2023-03-18T09:51:56.753Z,5.30
2023-03-18T09:52:56.766Z,4.60
2023-03-18T09:53:56.721Z,4.60
2023-03-18T09:54:56.731Z,4.20
2023-03-18T09:55:56.711Z,3.90
2023-03-18T09:56:56.706Z,4.00
2023-03-18T09:57:56.695Z,4.30
2023-03-18T09:58:56.673Z,4.00
2023-03-18T09:59:56.670Z,4.10
2023-03-18T10:00:56.679Z,4.20
2023-03-18T10:01:56.652Z,4.70
2023-03-18T10:02:56.655Z,4.00
2023-03-18T10:03:56.742Z,4.30
2023-03-18T10:04:56.618Z,4.10
2023-03-18T10:05:56.609Z,4.30
2023-03-18T10:06:56.601Z,4.20
2023-03-18T10:07:56.597Z,4.20
2023-03-18T10:08:56.585Z,3.90
2023-03-18T10:09:56.570Z,4.00
2023-03-18T10:10:56.567Z,4.10
2023-03-18T10:11:56.544Z,4.20
2023-03-18T10:12:56.552Z,4.10
2023-03-18T10:13:56.523Z,3.80
2023-03-18T10:14:56.613Z,4.20
2023-03-18T10:15:56.529Z,4.10
2023-03-18T10:16:56.502Z,4.20
2023-03-18T10:17:56.495Z,4.20
2023-03-18T10:18:56.478Z,4.40
2023-03-18T10:19:56.475Z,3.70
2023-03-18T10:20:56.458Z,3.50
2023-03-18T10:21:56.456Z,4.00
2023-03-18T10:22:56.448Z,3.60
2023-03-18T10:23:56.429Z,4.00
2023-03-18T10:24:56.421Z,3.90
2023-03-18T10:25:56.403Z,3.80
2023-03-18T10:26:56.394Z,3.70
2023-03-18T10:27:56.408Z,3.90
2023-03-18T10:28:56.385Z,4.00
2023-03-18T10:29:56.365Z,3.70
2023-03-18T10:30:56.380Z,3.90
2023-03-18T10:31:56.348Z,4.00
2023-03-18T10:32:56.399Z,4.10
2023-03-18T10:33:56.323Z,3.40
2023-03-18T10:34:56.315Z,3.90
2023-03-18T10:35:58.278Z,3.70
2023-03-18T10:36:56.298Z,3.80
2023-03-18T10:37:56.323Z,3.70
2023-03-18T10:38:56.269Z,4.00
2023-03-18T10:39:56.265Z,3.50
2023-03-18T10:40:56.252Z,3.50
2023-03-18T10:41:56.244Z,3.50
2023-03-18T10:42:56.241Z,3.40
2023-03-18T10:43:56.223Z,3.50
2023-03-18T10:44:56.207Z,4.20
2023-03-18T10:45:56.223Z,3.40
2023-03-18T10:46:56.268Z,3.50
2023-03-18T10:47:56.190Z,3.30
2023-03-18T10:48:56.168Z,3.40
2023-03-18T10:49:56.160Z,3.20
2023-03-18T10:50:56.146Z,3.20
2023-03-18T10:51:56.145Z,3.10
2023-03-18T10:52:56.142Z,3.20
2023-03-18T10:53:56.123Z,3.20
2023-03-18T10:54:56.105Z,3.10
2023-03-18T10:55:57.513Z,3.30
2023-03-18T10:56:57.096Z,3.20
2023-03-18T10:57:56.107Z,3.30
2023-03-18T10:58:56.077Z,2.70
2023-03-18T10:59:56.064Z,2.80
2023-03-18T11:00:56.053Z,3.20
2023-03-18T11:01:56.113Z,2.80
2023-03-18T11:03:27.952Z,3.10
2023-03-18T11:03:56.021Z,3.10
2023-03-18T11:04:56.011Z,3.10
2023-03-18T11:05:56.001Z,4.50
2023-03-18T11:06:55.998Z,2.90
2023-03-18T11:07:55.996Z,3.00
2023-03-18T11:08:55.967Z,2.70
2023-03-18T11:09:55.959Z,2.90
2023-03-18T11:10:55.953Z,3.00
2023-03-18T11:11:55.939Z,2.90
2023-03-18T11:12:55.941Z,3.10
2023-03-18T11:13:55.956Z,2.90
2023-03-18T11:14:55.920Z,3.30
2023-03-18T11:15:55.992Z,2.70
2023-03-18T11:16:55.898Z,2.70
2023-03-18T11:17:55.894Z,2.70
2023-03-18T11:18:55.873Z,3.10
2023-03-18T11:19:55.860Z,2.90
2023-03-18T11:20:55.855Z,2.70
2023-03-18T11:21:55.864Z,2.90
2023-03-18T11:22:55.831Z,2.60
2023-03-18T11:23:55.842Z,2.40
2023-03-18T11:24:55.831Z,2.60
2023-03-18T11:25:55.803Z,2.90
2023-03-18T11:26:55.797Z,2.80
2023-03-18T11:27:55.783Z,2.80
2023-03-18T11:28:55.783Z,2.80
2023-03-18T11:29:55.794Z,2.90
2023-03-18T11:30:55.796Z,3.00
2023-03-18T11:31:55.741Z,3.00
2023-03-18T11:32:55.872Z,2.80
2023-03-18T11:33:55.731Z,2.60
2023-03-18T11:34:55.738Z,2.80
2023-03-18T11:35:55.719Z,3.00
2023-03-18T11:36:55.690Z,2.90
2023-03-18T11:37:55.709Z,2.50
2023-03-18T11:38:55.704Z,2.80
2023-03-18T11:39:59.087Z,2.80
2023-03-18T11:40:56.654Z,2.40
2023-03-18T11:41:55.645Z,3.00
2023-03-18T11:42:55.641Z,3.10
2023-03-18T11:43:55.637Z,2.70
2023-03-18T11:44:55.621Z,3.00
2023-03-18T11:45:55.610Z,2.70
2023-03-18T11:46:55.642Z,2.70
2023-03-18T11:47:55.586Z,2.90
2023-03-18T11:48:55.584Z,2.70
2023-03-18T11:49:55.572Z,2.50
2023-03-18T11:50:55.559Z,2.80
2023-03-18T11:51:55.547Z,2.60
2023-03-18T11:52:55.534Z,2.70
2023-03-18T11:53:55.546Z,2.60
2023-03-18T11:54:55.528Z,2.50
2023-03-18T11:55:55.504Z,2.80
2023-03-18T11:56:55.522Z,2.40
2023-03-18T11:57:56.503Z,2.70
2023-03-18T11:58:55.503Z,2.80
2023-03-18T11:59:55.468Z,2.30
2023-03-18T12:00:55.459Z,2.60
2023-03-18T12:01:55.476Z,2.40
2023-03-18T12:02:55.437Z,2.40
2023-03-18T12:03:55.442Z,2.70
2023-03-18T12:04:55.449Z,2.60
2023-03-18T12:05:55.408Z,2.50
2023-03-18T12:06:55.395Z,2.70
2023-03-18T12:07:55.387Z,2.60
2023-03-18T12:08:55.387Z,2.50
2023-03-18T12:09:55.373Z,2.80
2023-03-18T12:10:55.359Z,2.80
2023-03-18T12:11:55.362Z,2.40
2023-03-18T12:12:55.343Z,2.90
2023-03-18T12:13:55.339Z,2.40
2023-03-18T12:14:55.316Z,2.40
2023-03-18T12:15:55.324Z,2.70
2023-03-18T12:16:55.342Z,2.40
2023-03-18T12:17:55.291Z,2.20
2023-03-18T12:18:55.289Z,2.50
2023-03-18T12:19:55.273Z,2.90
2023-03-18T12:20:55.277Z,2.70
2023-03-18T12:21:55.249Z,2.80
2023-03-18T12:22:55.237Z,2.80
2023-03-18T12:23:55.320Z,2.50
2023-03-18T12:24:55.323Z,2.60
2023-03-18T12:25:55.213Z,2.40
2023-03-18T12:26:55.197Z,2.60
2023-03-18T12:27:55.192Z,2.80
2023-03-18T12:28:55.198Z,2.50
2023-03-18T12:29:55.187Z,2.60
2023-03-18T12:30:55.163Z,2.50
2023-03-18T12:31:55.197Z,2.80
2023-03-18T12:32:55.216Z,2.50
2023-03-18T12:33:55.170Z,2.70
2023-03-18T12:34:55.144Z,2.70
2023-03-18T12:35:55.132Z,2.70
2023-03-18T12:36:55.116Z,2.30
2023-03-18T12:37:55.096Z,2.60
2023-03-18T12:38:55.099Z,2.60
2023-03-18T12:39:55.077Z,2.60
2023-03-18T12:40:55.066Z,3.00
2023-03-18T12:41:55.068Z,2.70
2023-03-18T12:42:55.052Z,2.70
2023-03-18T12:43:55.051Z,2.70
2023-03-18T12:44:55.029Z,2.60
2023-03-18T12:45:55.067Z,2.70
2023-03-18T12:46:55.012Z,2.70
2023-03-18T12:47:55.001Z,2.60
2023-03-18T12:48:55.000Z,2.80
2023-03-18T12:49:54.977Z,2.90
2023-03-18T12:50:54.985Z,3.00
2023-03-18T12:51:54.958Z,2.60
2023-03-18T12:52:54.950Z,2.90
2023-03-18T12:53:55.095Z,2.70
2023-03-18T12:54:54.935Z,3.00
2023-03-18T12:55:54.923Z,2.60
2023-03-18T12:56:54.911Z,2.90
2023-03-18T12:57:54.913Z,2.40
2023-03-18T12:58:54.904Z,2.60
2023-03-18T12:59:54.884Z,2.60
2023-03-18T13:00:54.991Z,2.60
2023-03-18T13:01:54.901Z,2.90
2023-03-18T13:02:54.944Z,2.60
2023-03-18T13:03:54.855Z,2.80
2023-03-18T13:04:55.429Z,2.60
2023-03-18T13:05:55.831Z,2.60
2023-03-18T13:06:54.813Z,2.80
2023-03-18T13:07:54.802Z,2.50
2023-03-18T13:08:54.805Z,2.70
2023-03-18T13:09:54.783Z,2.60
2023-03-18T13:10:54.777Z,2.60
2023-03-18T13:11:54.768Z,2.70
2023-03-18T13:12:54.776Z,3.00
2023-03-18T13:13:54.769Z,3.10
2023-03-18T13:14:54.726Z,3.20